UUWW/VKO METAR and TAF weather

Enter ICAO airport designator
Station Type Date Time Source
UUWW METAR 2022/11/30 17:00 UTC NOAA

UUWW 301700Z 10003MPS 6000 NSC M11/M12 Q1041 R06/510345 NOSIG


Station Type Date Time Source
UUWW Decoded METAR 2022/11/30 17:00 UTC NOAA

Moscow / Vnukovo , Russia (UUWW) 55-39N 037-16E
Nov 30, 2022 - 12:00 PM EST / 2022.11.30 1700 UTC
Wind: from the E (100 degrees) at 7 MPH (6 KT):0
Visibility: 3 mile(s):0
Temperature: 12 F (-11 C)
Windchill: 1 F (-17 C):1
Dew Point: 10 F (-12 C)
Relative Humidity: 92%
Pressure (altimeter): 30.74 in. Hg (1041 hPa)
ob: UUWW 301700Z 10003MPS 6000 NSC M11/M12 Q1041 R06/510345 NOSIG
cycle: 17

Station Type Date Time Source
UUWW TAF 2022/11/30 15:24 UTC NOAA

TAF UUWW 301400Z 3015/0115 12003MPS 6000 FEW004 BKN016 TXM07/0112Z TNM13/0102Z
TEMPO 3018/0107 0300 FZFG OVC002

Example: see airport list